Aal Hong Kong — V7BD5 — position and weather

sailwx.info

Track history (hours):
 
Tides and Currents Weather Stations Pressure Air Temp Water Temp Dewpoint Dewpoint Depression Visibility Wind Speed Wind Dir Waves Ship Positions

Aal Hong Kong

Last reported at 2017-Sep-24 23:40 UTC. Time now 2017-Oct-17 17:12 UTC.
Position S 27°23' E 153°10'.
Warning: this ship's position is 22 days out of date.

Length 193 m; draft 8.4 m.

Type: Ship. MMSI: 538005121.

Date/timePositionNaut miles runAvg speedWind from/ knotsBaromVisibWave heightAir tempDewpointWater temp
2017-Sep-24 23:40S 27°23' E 153°10'0 0.0
2017-Sep-24 23:10S 27°23' E 153°10'0 0.0
2017-Sep-24 22:33S 27°23' E 153°10'0 0.0
2017-Sep-24 22:30S 27°23' E 153°10'0 0.0
2017-Sep-24 22:00S 27°23' E 153°10'0 0.0
2017-Sep-24 21:30S 27°23' E 153°10'0 0.0
2017-Sep-24 20:50S 27°23' E 153°10'0 0.0
2017-Sep-24 20:30S 27°23' E 153°10'0 0.0
2017-Sep-24 19:49S 27°23' E 153°10'0 0.0
2017-Sep-24 16:15S 27°23' E 153°10'0 0.0
2017-Sep-24 10:55S 27°23' E 153°10'0 0.0
2017-Sep-24 10:28S 27°23' E 153°10'0 0.0
2017-Sep-24 09:55S 27°23' E 153°10'0 0.0
2017-Sep-24 07:21S 27°23' E 153°10'0 0.0
2017-Sep-24 06:48S 27°23' E 153°10'0 0.0
2017-Sep-24 06:27S 27°23' E 153°10'0 0.0
2017-Sep-24 05:58S 27°23' E 153°10'0 0.0
2017-Sep-24 05:26S 27°23' E 153°10'0 0.0
2017-Sep-24 04:56S 27°23' E 153°10'0 0.0
2017-Sep-24 04:24S 27°23' E 153°10'0 0.0
2017-Sep-24 03:40S 27°23' E 153°10'0 0.0
2017-Sep-24 03:26S 27°23' E 153°10'0 0.0
2017-Sep-24 02:59S 27°23' E 153°10'0 0.0
2017-Sep-24 02:26S 27°23' E 153°10'0 0.0
2017-Sep-24 01:37S 27°23' E 153°10'0 0.0
2017-Sep-24 00:59S 27°23' E 153°10'0 0.0
2017-Sep-24 00:30S 27°23' E 153°10'0 0.0
2017-Sep-24 00:00S 27°23' E 153°10'0 0.0
2017-Sep-23 23:25S 27°23' E 153°10'0 0.0
2017-Sep-23 22:31S 27°23' E 153°10'0 0.0
2017-Sep-23 22:25S 27°23' E 153°10'0 0.0
2017-Sep-23 21:55S 27°23' E 153°10'0 0.0
2017-Sep-23 21:07S 27°23' E 153°10'0 0.0
2017-Sep-23 20:49S 27°23' E 153°10'0 0.0
2017-Sep-23 19:42S 27°23' E 153°10'  
2017-Sep-21 15:13S 31°37' E 153°18'2 9.8
2017-Sep-21 14:58S 31°39' E 153°17'5 9.8
2017-Sep-21 14:30S 31°43' E 153°16'2210.2
2017-Sep-21 12:22S 32°05' E 153°14'4 9.9
2017-Sep-21 12:00S 32°08' E 153°12'510.2
2017-Sep-21 11:30S 32°13' E 153°09'510.1
2017-Sep-21 11:00S 32°17' E 153°06'510.2
2017-Sep-21 10:30S 32°21' E 153°03'510.0
2017-Sep-21 10:00S 32°26' E 153°00'510.3
2017-Sep-21 09:30S 32°30' E 152°57'510.5
2017-Sep-21 09:00S 32°34' E 152°53'510.4
2017-Sep-21 08:30S 32°38' E 152°48'611.4
2017-Sep-21 08:00S 32°42' E 152°43'612.2
2017-Sep-21 07:30S 32°46' E 152°38'612.4
2017-Sep-21 07:00S 32°50' E 152°33'612.4
2017-Sep-21 06:31S 32°55' E 152°28'612.4
2017-Sep-21 06:00S 32°55' E 152°21'612.2
2017-Sep-21 05:30S 32°56' E 152°14'612.2
2017-Sep-21 05:00S 32°57' E 152°06'612.4
2017-Sep-21 04:30S 32°57' E 151°59'612.3
2017-Sep-21 04:00S 32°58' E 151°52'4 7.6
2017-Sep-21 03:31S 32°55' E 151°49'2 4.1
2017-Sep-21 02:59S 32°55' E 151°46'0 0.1
2017-Sep-21 02:28S 32°55' E 151°46'0 0.0
2017-Sep-21 01:58S 32°55' E 151°46'0 0.0
2017-Sep-21 01:28S 32°55' E 151°46'0 0.0
2017-Sep-21 00:58S 32°55' E 151°46'0 0.0
2017-Sep-21 00:28S 32°55' E 151°46'0 0.0
2017-Sep-20 23:58S 32°55' E 151°46'0 0.0
2017-Sep-20 23:28S 32°55' E 151°46'0 0.0
2017-Sep-20 22:58S 32°55' E 151°46'0 0.0
2017-Sep-20 22:27S 32°55' E 151°46'0 0.0
2017-Sep-20 22:00S 32°55' E 151°46'0 0.0
2017-Sep-20 21:30S 32°55' E 151°46'0 0.0
2017-Sep-20 21:00S 32°55' E 151°46'0 0.0
2017-Sep-20 20:29S 32°55' E 151°46'0 0.0
2017-Sep-20 19:59S 32°55' E 151°46'0 0.0
2017-Sep-20 19:29S 32°55' E 151°46'0 0.0
2017-Sep-20 18:58S 32°55' E 151°46'0 0.0
2017-Sep-20 18:28S 32°55' E 151°46'0 0.0
2017-Sep-20 17:58S 32°55' E 151°46'0 0.0
2017-Sep-20 17:28S 32°55' E 151°46'0 0.0
2017-Sep-20 16:58S 32°55' E 151°46'0 0.0
2017-Sep-20 16:28S 32°55' E 151°46'0 0.0
2017-Sep-20 15:58S 32°55' E 151°46'0 0.0
2017-Sep-20 15:28S 32°55' E 151°46'0 0.0
2017-Sep-20 14:58S 32°55' E 151°46'0 0.0
2017-Sep-20 14:00S 32°55' E 151°46'0 0.0
2017-Sep-20 13:30S 32°55' E 151°46'0 0.0
2017-Sep-20 13:00S 32°55' E 151°46'0 0.0
2017-Sep-20 12:29S 32°55' E 151°46'0 0.0
2017-Sep-20 12:00S 32°55' E 151°46'0 0.0
2017-Sep-20 11:29S 32°55' E 151°46'0 0.0
2017-Sep-20 10:59S 32°55' E 151°46'0 0.0
2017-Sep-20 10:28S 32°55' E 151°46'0 0.0
2017-Sep-20 09:58S 32°55' E 151°46'0 0.0
2017-Sep-20 09:28S 32°55' E 151°46'0 0.0
2017-Sep-20 08:58S 32°55' E 151°46'0 0.0
2017-Sep-20 08:28S 32°55' E 151°46'0 0.0
2017-Sep-20 07:58S 32°55' E 151°46'0 0.0
2017-Sep-20 07:28S 32°55' E 151°46'0 0.0
2017-Sep-20 06:58S 32°55' E 151°46'0 0.0
2017-Sep-20 06:28S 32°55' E 151°46'0 0.0
2017-Sep-20 05:58S 32°55' E 151°46'0 0.0
2017-Sep-20 05:28S 32°55' E 151°46'0 0.0
2017-Sep-20 05:00S 32°55' E 151°46'0 0.0
2017-Sep-20 04:30S 32°55' E 151°46'0 0.0
2017-Sep-20 04:00S 32°55' E 151°46'0 0.0
2017-Sep-20 03:30S 32°55' E 151°46'0 0.0
2017-Sep-20 03:00S 32°55' E 151°46'0 0.0
2017-Sep-20 02:30S 32°55' E 151°46'0 0.0
2017-Sep-20 02:00S 32°55' E 151°46'0 0.0
2017-Sep-20 01:30S 32°55' E 151°46'0 0.0
2017-Sep-20 01:00S 32°55' E 151°46'0 0.0
2017-Sep-20 00:27S 32°55' E 151°46'0 0.0
2017-Sep-19 23:58S 32°55' E 151°46'0 0.0
2017-Sep-19 23:23S 32°55' E 151°46'0 0.0
2017-Sep-19 22:59S 32°55' E 151°46'0 0.0
2017-Sep-19 22:29S 32°55' E 151°46'0 0.0
2017-Sep-19 21:59S 32°55' E 151°46'0 0.0
2017-Sep-19 21:26S 32°55' E 151°46'0 0.0
2017-Sep-19 20:59S 32°55' E 151°46'0 0.0
2017-Sep-19 20:28S 32°55' E 151°46'0 0.0
2017-Sep-19 19:58S 32°55' E 151°46'0 0.0
2017-Sep-19 19:28S 32°55' E 151°46'0 0.0
2017-Sep-19 18:58S 32°55' E 151°46'0 0.0
2017-Sep-19 18:28S 32°55' E 151°46'0 0.0
2017-Sep-19 17:58S 32°55' E 151°46'0 0.0
2017-Sep-19 17:30S 32°55' E 151°46'0 0.0
2017-Sep-19 16:59S 32°55' E 151°46'0 0.0
2017-Sep-19 16:29S 32°55' E 151°46'0 0.0
2017-Sep-19 15:59S 32°55' E 151°46'0 0.0
2017-Sep-19 15:29S 32°55' E 151°46'0 0.0
2017-Sep-19 14:59S 32°55' E 151°46'0 0.0
2017-Sep-19 14:29S 32°55' E 151°46'0 0.2
2017-Sep-19 14:01S 32°55' E 151°46'1 2.2
2017-Sep-19 13:31S 32°55' E 151°48'3 6.8
2017-Sep-19 13:00S 32°57' E 151°51'4 7.7
2017-Sep-19 12:31S 33°00' E 151°53'3 6.7
2017-Sep-19 12:01S 33°04' E 151°53'4 8.4
2017-Sep-19 11:30S 33°08' E 151°53'713.5
2017-Sep-19 11:00S 33°15' E 151°52'3814.7
2017-Sep-19 08:26S 33°52' E 151°42'23915.2
2017-Sep-18 16:43S 37°42' E 150°25'313.4
2017-Sep-18 16:30S 37°44' E 150°22'713.0
2017-Sep-18 16:00S 37°48' E 150°15'18914.2
2017-Sep-18 02:42S 39°15' E 146°41'314.7
2017-Sep-18 02:31S 39°16' E 146°38'714.4
2017-Sep-18 02:01S 39°17' E 146°29'715.0
2017-Sep-18 01:31S 39°18' E 146°19'714.0
2017-Sep-18 01:01S 39°15' E 146°11'815.0
2017-Sep-18 00:30S 39°11' E 146°02'815.1
2017-Sep-18 00:00S 39°07' E 145°54'715.0
2017-Sep-17 23:31S 39°03' E 145°46'1415.1
2017-Sep-17 22:36S 38°56' E 145°31'415.0
2017-Sep-17 22:19S 38°54' E 145°26'44 9.1
2017-Sep-17 17:28S 38°18' E 144°55'613.4
2017-Sep-17 17:00S 38°11' E 144°54'612.3
2017-Sep-17 16:30S 38°05' E 144°55'510.3
2017-Sep-17 16:00S 38°00' E 144°55'5 9.1
2017-Sep-17 15:30S 37°56' E 144°55'4 8.4
2017-Sep-17 15:00S 37°51' E 144°55'2 4.5
2017-Sep-17 14:28S 37°49' E 144°55'0 0.0
2017-Sep-17 09:03S 37°49' E 144°55'0 0.0
2017-Sep-17 06:12S 37°49' E 144°55'0 0.0
2017-Sep-17 05:54S 37°49' E 144°55'0 0.0
2017-Sep-16 19:57S 37°49' E 144°55'0 0.0
2017-Sep-16 06:39S 37°49' E 144°55'0 0.0
2017-Sep-16 06:24S 37°49' E 144°55'0 0.0
2017-Sep-16 05:15S 37°49' E 144°55'  
Track history (hours):
 
Tides and Currents Weather Stations Pressure Air Temp Water Temp Dewpoint Dewpoint Depression Visibility Wind Speed Wind Dir Waves Ship Positions

Aal Hong Kong

Last reported at 2017-Sep-24 23:40 UTC. Time now 2017-Oct-17 17:12 UTC.
Position S 27°23' E 153°10'.
Warning: this ship's position is 22 days out of date.

Length 193 m; draft 8.4 m.

Type: Ship. MMSI: 538005121.

Date/timePositionNaut miles runAvg speedWind from/ knotsBaromVisibWave heightAir tempDewpointWater temp
2017-Sep-24 23:40S 27°23' E 153°10'0 0.0
2017-Sep-24 23:10S 27°23' E 153°10'0 0.0
2017-Sep-24 22:33S 27°23' E 153°10'0 0.0
2017-Sep-24 22:30S 27°23' E 153°10'0 0.0
2017-Sep-24 22:00S 27°23' E 153°10'0 0.0
2017-Sep-24 21:30S 27°23' E 153°10'0 0.0
2017-Sep-24 20:50S 27°23' E 153°10'0 0.0
2017-Sep-24 20:30S 27°23' E 153°10'0 0.0
2017-Sep-24 19:49S 27°23' E 153°10'0 0.0
2017-Sep-24 16:15S 27°23' E 153°10'0 0.0
2017-Sep-24 10:55S 27°23' E 153°10'0 0.0
2017-Sep-24 10:28S 27°23' E 153°10'0 0.0
2017-Sep-24 09:55S 27°23' E 153°10'0 0.0
2017-Sep-24 07:21S 27°23' E 153°10'0 0.0
2017-Sep-24 06:48S 27°23' E 153°10'0 0.0
2017-Sep-24 06:27S 27°23' E 153°10'0 0.0
2017-Sep-24 05:58S 27°23' E 153°10'0 0.0
2017-Sep-24 05:26S 27°23' E 153°10'0 0.0
2017-Sep-24 04:56S 27°23' E 153°10'0 0.0
2017-Sep-24 04:24S 27°23' E 153°10'0 0.0
2017-Sep-24 03:40S 27°23' E 153°10'0 0.0
2017-Sep-24 03:26S 27°23' E 153°10'0 0.0
2017-Sep-24 02:59S 27°23' E 153°10'0 0.0
2017-Sep-24 02:26S 27°23' E 153°10'0 0.0
2017-Sep-24 01:37S 27°23' E 153°10'0 0.0
2017-Sep-24 00:59S 27°23' E 153°10'0 0.0
2017-Sep-24 00:30S 27°23' E 153°10'0 0.0
2017-Sep-24 00:00S 27°23' E 153°10'0 0.0
2017-Sep-23 23:25S 27°23' E 153°10'0 0.0
2017-Sep-23 22:31S 27°23' E 153°10'0 0.0
2017-Sep-23 22:25S 27°23' E 153°10'0 0.0
2017-Sep-23 21:55S 27°23' E 153°10'0 0.0
2017-Sep-23 21:07S 27°23' E 153°10'0 0.0
2017-Sep-23 20:49S 27°23' E 153°10'0 0.0
2017-Sep-23 19:42S 27°23' E 153°10'  
2017-Sep-21 15:13S 31°37' E 153°18'2 9.8
2017-Sep-21 14:58S 31°39' E 153°17'5 9.8
2017-Sep-21 14:30S 31°43' E 153°16'2210.2
2017-Sep-21 12:22S 32°05' E 153°14'4 9.9
2017-Sep-21 12:00S 32°08' E 153°12'510.2
2017-Sep-21 11:30S 32°13' E 153°09'510.1
2017-Sep-21 11:00S 32°17' E 153°06'510.2
2017-Sep-21 10:30S 32°21' E 153°03'510.0
2017-Sep-21 10:00S 32°26' E 153°00'510.3
2017-Sep-21 09:30S 32°30' E 152°57'510.5
2017-Sep-21 09:00S 32°34' E 152°53'510.4
2017-Sep-21 08:30S 32°38' E 152°48'611.4
2017-Sep-21 08:00S 32°42' E 152°43'612.2
2017-Sep-21 07:30S 32°46' E 152°38'612.4
2017-Sep-21 07:00S 32°50' E 152°33'612.4
2017-Sep-21 06:31S 32°55' E 152°28'612.4
2017-Sep-21 06:00S 32°55' E 152°21'612.2
2017-Sep-21 05:30S 32°56' E 152°14'612.2
2017-Sep-21 05:00S 32°57' E 152°06'612.4
2017-Sep-21 04:30S 32°57' E 151°59'612.3
2017-Sep-21 04:00S 32°58' E 151°52'4 7.6
2017-Sep-21 03:31S 32°55' E 151°49'2 4.1
2017-Sep-21 02:59S 32°55' E 151°46'0 0.1
2017-Sep-21 02:28S 32°55' E 151°46'0 0.0
2017-Sep-21 01:58S 32°55' E 151°46'0 0.0
2017-Sep-21 01:28S 32°55' E 151°46'0 0.0
2017-Sep-21 00:58S 32°55' E 151°46'0 0.0
2017-Sep-21 00:28S 32°55' E 151°46'0 0.0
2017-Sep-20 23:58S 32°55' E 151°46'0 0.0
2017-Sep-20 23:28S 32°55' E 151°46'0 0.0
2017-Sep-20 22:58S 32°55' E 151°46'0 0.0
2017-Sep-20 22:27S 32°55' E 151°46'0 0.0
2017-Sep-20 22:00S 32°55' E 151°46'0 0.0
2017-Sep-20 21:30S 32°55' E 151°46'0 0.0
2017-Sep-20 21:00S 32°55' E 151°46'0 0.0
2017-Sep-20 20:29S 32°55' E 151°46'0 0.0
2017-Sep-20 19:59S 32°55' E 151°46'0 0.0
2017-Sep-20 19:29S 32°55' E 151°46'0 0.0
2017-Sep-20 18:58S 32°55' E 151°46'0 0.0
2017-Sep-20 18:28S 32°55' E 151°46'0 0.0
2017-Sep-20 17:58S 32°55' E 151°46'0 0.0
2017-Sep-20 17:28S 32°55' E 151°46'0 0.0
2017-Sep-20 16:58S 32°55' E 151°46'0 0.0
2017-Sep-20 16:28S 32°55' E 151°46'0 0.0
2017-Sep-20 15:58S 32°55' E 151°46'0 0.0
2017-Sep-20 15:28S 32°55' E 151°46'0 0.0
2017-Sep-20 14:58S 32°55' E 151°46'0 0.0
2017-Sep-20 14:00S 32°55' E 151°46'0 0.0
2017-Sep-20 13:30S 32°55' E 151°46'0 0.0
2017-Sep-20 13:00S 32°55' E 151°46'0 0.0
2017-Sep-20 12:29S 32°55' E 151°46'0 0.0
2017-Sep-20 12:00S 32°55' E 151°46'0 0.0
2017-Sep-20 11:29S 32°55' E 151°46'0 0.0
2017-Sep-20 10:59S 32°55' E 151°46'0 0.0
2017-Sep-20 10:28S 32°55' E 151°46'0 0.0
2017-Sep-20 09:58S 32°55' E 151°46'0 0.0
2017-Sep-20 09:28S 32°55' E 151°46'0 0.0
2017-Sep-20 08:58S 32°55' E 151°46'0 0.0
2017-Sep-20 08:28S 32°55' E 151°46'0 0.0
2017-Sep-20 07:58S 32°55' E 151°46'0 0.0
2017-Sep-20 07:28S 32°55' E 151°46'0 0.0
2017-Sep-20 06:58S 32°55' E 151°46'0 0.0
2017-Sep-20 06:28S 32°55' E 151°46'0 0.0
2017-Sep-20 05:58S 32°55' E 151°46'0 0.0
2017-Sep-20 05:28S 32°55' E 151°46'0 0.0
2017-Sep-20 05:00S 32°55' E 151°46'0 0.0
2017-Sep-20 04:30S 32°55' E 151°46'0 0.0
2017-Sep-20 04:00S 32°55' E 151°46'0 0.0
2017-Sep-20 03:30S 32°55' E 151°46'0 0.0
2017-Sep-20 03:00S 32°55' E 151°46'0 0.0
2017-Sep-20 02:30S 32°55' E 151°46'0 0.0
2017-Sep-20 02:00S 32°55' E 151°46'0 0.0
2017-Sep-20 01:30S 32°55' E 151°46'0 0.0
2017-Sep-20 01:00S 32°55' E 151°46'0 0.0
2017-Sep-20 00:27S 32°55' E 151°46'0 0.0
2017-Sep-19 23:58S 32°55' E 151°46'0 0.0
2017-Sep-19 23:23S 32°55' E 151°46'0 0.0
2017-Sep-19 22:59S 32°55' E 151°46'0 0.0
2017-Sep-19 22:29S 32°55' E 151°46'0 0.0
2017-Sep-19 21:59S 32°55' E 151°46'0 0.0
2017-Sep-19 21:26S 32°55' E 151°46'0 0.0
2017-Sep-19 20:59S 32°55' E 151°46'0 0.0
2017-Sep-19 20:28S 32°55' E 151°46'0 0.0
2017-Sep-19 19:58S 32°55' E 151°46'0 0.0
2017-Sep-19 19:28S 32°55' E 151°46'0 0.0
2017-Sep-19 18:58S 32°55' E 151°46'0 0.0
2017-Sep-19 18:28S 32°55' E 151°46'0 0.0
2017-Sep-19 17:58S 32°55' E 151°46'0 0.0
2017-Sep-19 17:30S 32°55' E 151°46'0 0.0
2017-Sep-19 16:59S 32°55' E 151°46'0 0.0
2017-Sep-19 16:29S 32°55' E 151°46'0 0.0
2017-Sep-19 15:59S 32°55' E 151°46'0 0.0
2017-Sep-19 15:29S 32°55' E 151°46'0 0.0
2017-Sep-19 14:59S 32°55' E 151°46'0 0.0
2017-Sep-19 14:29S 32°55' E 151°46'0 0.2
2017-Sep-19 14:01S 32°55' E 151°46'1 2.2
2017-Sep-19 13:31S 32°55' E 151°48'3 6.8
2017-Sep-19 13:00S 32°57' E 151°51'4 7.7
2017-Sep-19 12:31S 33°00' E 151°53'3 6.7
2017-Sep-19 12:01S 33°04' E 151°53'4 8.4
2017-Sep-19 11:30S 33°08' E 151°53'713.5
2017-Sep-19 11:00S 33°15' E 151°52'3814.7
2017-Sep-19 08:26S 33°52' E 151°42'23915.2
2017-Sep-18 16:43S 37°42' E 150°25'313.4
2017-Sep-18 16:30S 37°44' E 150°22'713.0
2017-Sep-18 16:00S 37°48' E 150°15'18914.2
2017-Sep-18 02:42S 39°15' E 146°41'314.7
2017-Sep-18 02:31S 39°16' E 146°38'714.4
2017-Sep-18 02:01S 39°17' E 146°29'715.0
2017-Sep-18 01:31S 39°18' E 146°19'714.0
2017-Sep-18 01:01S 39°15' E 146°11'815.0
2017-Sep-18 00:30S 39°11' E 146°02'815.1
2017-Sep-18 00:00S 39°07' E 145°54'715.0
2017-Sep-17 23:31S 39°03' E 145°46'1415.1
2017-Sep-17 22:36S 38°56' E 145°31'415.0
2017-Sep-17 22:19S 38°54' E 145°26'44 9.1
2017-Sep-17 17:28S 38°18' E 144°55'613.4
2017-Sep-17 17:00S 38°11' E 144°54'612.3
2017-Sep-17 16:30S 38°05' E 144°55'510.3
2017-Sep-17 16:00S 38°00' E 144°55'5 9.1
2017-Sep-17 15:30S 37°56' E 144°55'4 8.4
2017-Sep-17 15:00S 37°51' E 144°55'2 4.5
2017-Sep-17 14:28S 37°49' E 144°55'0 0.0
2017-Sep-17 09:03S 37°49' E 144°55'0 0.0
2017-Sep-17 06:12S 37°49' E 144°55'0 0.0
2017-Sep-17 05:54S 37°49' E 144°55'0 0.0
2017-Sep-16 19:57S 37°49' E 144°55'0 0.0
2017-Sep-16 06:39S 37°49' E 144°55'0 0.0
2017-Sep-16 06:24S 37°49' E 144°55'0 0.0
2017-Sep-16 05:15S 37°49' E 144°55'  

Dump ship's entire track history